首页
METAR-TAF:

METAR-TAF

机场 :

墨西哥城贝尼托·胡亚雷斯国际机场

墨西哥城, 墨西哥

纬度: 19-26N, 经度: 099-06W, 海拔: 2238米

当前天气观测

该预报发布于13分钟前的12:23 UTC
风速4节,风向西北
温度 15°C
湿度 77%
气压 1030 hPa
能見度: 8.0公里
阴天层高于2000英尺

METAR: MMMX 181223Z 32004KT 5SM OVC020 15/11 A3042 NOSIG RMK 8/5// HZY LWR SC BINOVC

时间: 07:36 (12:36 UTC)

预报

该预报发布于59分钟前的11:37 UTC
预报有效从18日的 12点(UTC)到 19日的 18点(UTC)
风速5节,风向
能見度: 8.0公里
多云层高于2000英尺
从 18日的 1400点(UTC)
风速5节,风向东南
能見度: 10公里
散云层高于2000英尺
散云层高于10000英尺
从 18日的 2100点(UTC)
风速10节,风向东转东南
能見度: 10公里
多云层高于2000英尺, 积雨云.
阴天层高于8000英尺
短暂存在
从 18日的 22点(UTC)到 19日的 02点(UTC)
能見度: 3.2公里
雷暴, 雨
从 19日的 0300点(UTC)
风速5节,风向东转东北
能見度: 9.7公里
散云层高于1500英尺
多云层高于8000英尺
从 19日的 1700点(UTC)
风速10节,风向
能見度: 10公里
散云层高于1500英尺

TAF: MMMX 181137Z 1812/1918 18005KT 5SM HZ BKN020 TX24/1821Z TN12/1812Z FM181400 13005KT P6SM SCT020 SCT100 FM182100 12010KT P6SM BKN020CB OVC080 TEMPO 1822/1902 2SM TSRA FM190300 06005KT 6SM HZ SCT015 BKN080 FM191700 08010KT P6SM SCT015

超过4000个机场的气象观测和天气预报(METAR&TAF报告)。

可查询的气象台以黄色和红色小点在地图上表示。

将鼠标移到小点上方,可查看气象台名称。

然后点击查看天气观测和预报。

如需切换地图:点击带黑十字的绿色按钮放大地图;点击带横线的绿色按钮缩小地图;或者点击绿色箭头查看邻近地区的地图。


METAR-TAF: